Time;durP1;ratioP1;P1;durP2;ratioP2;P2;SDS_P1;SDS_P2;PMS_P1;PMS_P2;Temp;Humidity;BMP_temperature;BMP_pressure;BME280_temperature;BME280_humidity;BME280_pressure;Samples;Min_cycle;Max_cycle;Signal;HPM_P1;HPM_P2
2022/03/09 00:01:12;;;;;;;;;;;5.50;59.10;;;;;;2348257;57;20150;-76
2022/03/09 00:03:38;;;;;;;;;;;5.40;58.40;;;;;;2348257;57;20114;-75
2022/03/09 00:06:05;;;;;;;;;;;5.50;58.60;;;;;;2348304;57;20079;-75
2022/03/09 00:08:31;;;;;;;;;;;5.40;58.60;;;;;;2348166;57;20082;-76
2022/03/09 00:10:58;;;;;;;;;;;5.40;58.60;;;;;;2347662;57;20134;-75
2022/03/09 00:13:24;;;;;;;;;;;5.40;58.60;;;;;;2348388;57;20082;-75
2022/03/09 00:15:51;;;;;;;;;;;5.40;58.70;;;;;;2348480;57;20373;-75
2022/03/09 00:18:19;;;;;;;;;;;5.40;58.80;;;;;;2595566;53;20055;-75
2022/03/09 00:20:46;;;;;;;;;;;5.30;58.70;;;;;;2348114;57;20113;-75
2022/03/09 00:23:12;;;;;;;;;;;5.30;58.80;;;;;;2348553;57;20082;-76
2022/03/09 00:25:39;;;;;;;;;;;5.30;59.00;;;;;;2347963;57;20074;-75
2022/03/09 00:28:05;;;;;;;;;;;5.30;59.00;;;;;;2347965;57;20078;-76
2022/03/09 00:30:31;;;;;;;;;;;5.30;59.10;;;;;;2347739;57;20142;-75
2022/03/09 00:32:58;;;;;;;;;;;5.30;59.10;;;;;;2348176;57;20070;-76
2022/03/09 00:35:25;;;;;;;;;;;5.30;59.00;;;;;;2595434;53;20177;-75
2022/03/09 00:37:52;;;;;;;;;;;5.20;58.90;;;;;;2348304;57;20181;-76
2022/03/09 00:40:19;;;;;;;;;;;5.20;58.90;;;;;;2348035;57;20153;-75
2022/03/09 00:42:45;;;;;;;;;;;5.20;59.00;;;;;;2347909;57;20113;-76
2022/03/09 00:45:12;;;;;;;;;;;5.20;59.10;;;;;;2595371;53;20122;-75
2022/03/09 00:47:38;;;;;;;;;;;5.10;59.30;;;;;;2348706;57;20369;-75
2022/03/09 00:50:06;;;;;;;;;;;5.10;59.30;;;;;;2347232;57;20066;-75
2022/03/09 00:52:32;;;;;;;;;;;5.10;59.40;;;;;;2348556;57;20082;-76
2022/03/09 00:54:59;;;;;;;;;;;5.10;59.30;;;;;;2348796;57;20079;-75
2022/03/09 00:57:26;;;;;;;;;;;5.20;59.20;;;;;;2380702;53;20238;-75
2022/03/09 00:59:53;;;;;;;;;;;5.20;59.00;;;;;;2399121;53;20139;-75
2022/03/09 01:02:19;;;;;;;;;;;5.10;59.00;;;;;;2295722;58;20076;-76
2022/03/09 01:04:46;;;;;;;;;;;5.10;59.00;;;;;;2302285;55;20072;-75
2022/03/09 01:07:12;;;;;;;;;;;5.10;59.10;;;;;;2294775;58;20116;-75
2022/03/09 01:09:39;;;;;;;;;;;5.00;59.20;;;;;;2295147;58;20359;-76
2022/03/09 01:12:06;;;;;;;;;;;5.10;59.20;;;;;;2295633;58;20080;-76
2022/03/09 01:14:32;;;;;;;;;;;5.10;59.20;;;;;;2295606;58;20085;-75
2022/03/09 01:16:59;;;;;;;;;;;5.00;59.30;;;;;;2295747;58;20362;-75
2022/03/09 01:19:25;;;;;;;;;;;5.00;59.20;;;;;;2316721;55;20072;-75
2022/03/09 01:21:52;;;;;;;;;;;5.00;59.10;;;;;;2295509;58;20085;-75
2022/03/09 01:24:18;;;;;;;;;;;5.00;59.10;;;;;;2294133;58;20089;-75
2022/03/09 01:26:45;;;;;;;;;;;4.90;59.10;;;;;;2293874;58;20080;-76
2022/03/09 01:29:11;;;;;;;;;;;4.90;59.10;;;;;;2295103;58;20085;-76
2022/03/09 01:31:38;;;;;;;;;;;4.90;59.20;;;;;;2334134;55;20120;-76
2022/03/09 01:34:04;;;;;;;;;;;4.90;59.10;;;;;;2295421;58;20068;-75
2022/03/09 01:36:31;;;;;;;;;;;4.80;59.80;;;;;;2295593;58;20080;-75
2022/03/09 01:38:57;;;;;;;;;;;4.80;59.40;;;;;;2295184;58;20346;-75
2022/03/09 01:41:24;;;;;;;;;;;4.80;59.60;;;;;;2294514;58;20076;-75
2022/03/09 01:44:04;;;;;;;;;;;4.80;59.70;;;;;;2295280;58;20335;-75
2022/03/09 01:46:31;;;;;;;;;;;4.70;59.60;;;;;;2295535;58;20060;-76
2022/03/09 01:48:57;;;;;;;;;;;4.70;59.70;;;;;;2294813;58;20196;-75
2022/03/09 01:51:24;;;;;;;;;;;4.70;59.70;;;;;;2295452;58;20068;-75
2022/03/09 01:53:50;;;;;;;;;;;4.60;59.70;;;;;;2295546;58;20072;-76
2022/03/09 01:56:17;;;;;;;;;;;4.60;59.80;;;;;;2296079;58;20057;-75
2022/03/09 01:58:43;;;;;;;;;;;4.60;59.80;;;;;;2295329;58;20065;-77
2022/03/09 02:01:10;;;;;;;;;;;4.60;60.10;;;;;;2295748;58;20109;-75
2022/03/09 02:03:36;;;;;;;;;;;4.50;59.70;;;;;;2311666;55;20143;-75
2022/03/09 02:06:03;;;;;;;;;;;4.50;59.90;;;;;;2295840;58;20085;-76
2022/03/09 02:11:14;;;;;;;;;;;4.50;60.10;;;;;;2302086;55;20072;-75
2022/03/09 02:13:40;;;;;;;;;;;4.50;60.20;;;;;;2295413;58;20052;-75
2022/03/09 02:16:07;;;;;;;;;;;4.40;60.10;;;;;;2295433;58;20354;-75
2022/03/09 02:18:34;;;;;;;;;;;4.40;60.20;;;;;;2295611;58;20132;-74
2022/03/09 02:21:01;;;;;;;;;;;4.40;60.30;;;;;;2301959;55;20064;-75
2022/03/09 02:23:28;;;;;;;;;;;4.30;60.40;;;;;;2295515;58;20143;-75
2022/03/09 02:25:54;;;;;;;;;;;4.30;60.90;;;;;;2295794;58;20319;-77
2022/03/09 02:28:21;;;;;;;;;;;4.20;61.00;;;;;;2295620;58;20299;-75
2022/03/09 02:30:47;;;;;;;;;;;4.30;61.10;;;;;;2295107;58;20151;-75
2022/03/09 02:33:14;;;;;;;;;;;4.30;61.20;;;;;;2295807;58;20191;-74
2022/03/09 02:35:40;;;;;;;;;;;4.30;61.00;;;;;;2295671;58;20159;-75
2022/03/09 02:38:07;;;;;;;;;;;4.30;60.80;;;;;;2305099;55;20080;-75
2022/03/09 02:40:33;;;;;;;;;;;4.30;60.80;;;;;;2295688;58;20081;-75
2022/03/09 02:43:00;;;;;;;;;;;4.30;60.60;;;;;;2295694;58;20342;-75
2022/03/09 02:45:26;;;;;;;;;;;4.20;60.50;;;;;;2295351;58;20335;-75
2022/03/09 02:47:53;;;;;;;;;;;4.20;60.50;;;;;;2294437;58;20125;-75
2022/03/09 02:50:19;;;;;;;;;;;4.20;60.70;;;;;;2295528;58;20378;-75
2022/03/09 02:52:46;;;;;;;;;;;4.20;60.70;;;;;;2295967;58;20187;-75
2022/03/09 02:55:12;;;;;;;;;;;4.10;60.60;;;;;;2295181;58;20129;-75
2022/03/09 02:57:39;;;;;;;;;;;4.10;60.80;;;;;;2295803;58;20121;-75
2022/03/09 03:00:08;;;;;;;;;;;4.10;61.00;;;;;;2294918;58;20092;-75
2022/03/09 03:02:34;;;;;;;;;;;4.10;61.20;;;;;;2294519;58;20128;-75
2022/03/09 03:05:01;;;;;;;;;;;4.10;61.20;;;;;;2426969;55;20092;-75
2022/03/09 03:07:29;;;;;;;;;;;4.10;60.90;;;;;;2295241;58;20144;-75
2022/03/09 03:09:55;;;;;;;;;;;4.10;60.80;;;;;;2295506;58;20378;-75
2022/03/09 03:12:22;;;;;;;;;;;4.10;60.70;;;;;;2295639;58;20146;-75
2022/03/09 03:14:48;;;;;;;;;;;4.00;60.70;;;;;;2295460;58;20087;-75
2022/03/09 03:17:15;;;;;;;;;;;4.10;60.90;;;;;;2295753;58;20338;-75
2022/03/09 03:19:41;;;;;;;;;;;4.00;61.10;;;;;;2295243;58;20250;-75
2022/03/09 03:22:08;;;;;;;;;;;4.00;61.00;;;;;;2295418;58;20128;-75
2022/03/09 03:24:34;;;;;;;;;;;4.00;61.00;;;;;;2294337;58;20346;-75
2022/03/09 03:27:01;;;;;;;;;;;4.00;60.80;;;;;;2295370;58;20153;-76
2022/03/09 03:29:27;;;;;;;;;;;3.90;60.70;;;;;;2295023;58;20084;-75
2022/03/09 03:31:54;;;;;;;;;;;4.00;60.60;;;;;;2295215;58;20120;-75
2022/03/09 03:34:20;;;;;;;;;;;3.90;60.80;;;;;;2299506;55;20060;-75
2022/03/09 03:36:47;;;;;;;;;;;3.90;61.10;;;;;;2295117;58;20105;-76
2022/03/09 03:39:14;;;;;;;;;;;3.90;61.10;;;;;;2295041;58;20131;-75
2022/03/09 03:41:40;;;;;;;;;;;3.80;61.20;;;;;;2295667;58;20180;-75
2022/03/09 03:44:07;;;;;;;;;;;3.80;61.40;;;;;;2447733;55;20116;-75
2022/03/09 03:46:33;;;;;;;;;;;3.80;61.20;;;;;;2295848;58;20132;-75
2022/03/09 03:49:00;;;;;;;;;;;3.80;61.30;;;;;;2295258;58;20140;-76
2022/03/09 03:51:26;;;;;;;;;;;3.80;61.90;;;;;;2295655;58;20127;-75
2022/03/09 03:53:53;;;;;;;;;;;3.80;61.00;;;;;;2295463;58;20422;-75
2022/03/09 03:56:19;;;;;;;;;;;3.80;60.90;;;;;;2295818;58;20064;-75
2022/03/09 03:58:46;;;;;;;;;;;3.70;61.70;;;;;;2295801;58;20076;-75
2022/03/09 04:01:12;;;;;;;;;;;3.70;61.00;;;;;;2295404;58;20136;-75
2022/03/09 04:03:39;;;;;;;;;;;3.70;61.20;;;;;;2294738;58;20076;-75
2022/03/09 04:06:06;;;;;;;;;;;3.70;61.30;;;;;;2375762;55;20120;-75
2022/03/09 04:08:33;;;;;;;;;;;3.70;61.30;;;;;;2337735;55;20084;-75
2022/03/09 04:10:59;;;;;;;;;;;3.70;61.10;;;;;;2295418;58;20060;-75
2022/03/09 04:13:26;;;;;;;;;;;3.60;61.30;;;;;;2295805;58;20203;-75
2022/03/09 04:15:52;;;;;;;;;;;3.60;61.40;;;;;;2295159;58;20143;-75
2022/03/09 04:18:19;;;;;;;;;;;3.60;61.30;;;;;;2306003;55;20072;-75
2022/03/09 04:20:45;;;;;;;;;;;3.50;61.40;;;;;;2347427;55;20084;-74
2022/03/09 04:23:12;;;;;;;;;;;3.40;61.60;;;;;;2294727;58;20128;-74
2022/03/09 04:25:39;;;;;;;;;;;3.30;62.10;;;;;;2295749;58;20342;-74
2022/03/09 04:28:05;;;;;;;;;;;3.30;62.70;;;;;;2295468;58;20080;-74
2022/03/09 04:30:32;;;;;;;;;;;3.20;62.90;;;;;;2314815;55;20335;-74
2022/03/09 04:32:59;;;;;;;;;;;3.30;63.00;;;;;;2295891;58;20116;-74
2022/03/09 04:35:25;;;;;;;;;;;3.30;62.80;;;;;;2295275;58;20120;-75
2022/03/09 04:37:52;;;;;;;;;;;3.30;62.60;;;;;;2295137;58;20234;-74
2022/03/09 04:40:18;;;;;;;;;;;3.30;62.40;;;;;;2294903;58;20360;-74
2022/03/09 04:42:44;;;;;;;;;;;3.30;62.30;;;;;;2295942;58;20064;-74
2022/03/09 04:45:11;;;;;;;;;;;3.30;62.30;;;;;;2295176;58;20072;-74
2022/03/09 04:47:38;;;;;;;;;;;3.30;62.20;;;;;;2295216;58;20120;-75
2022/03/09 04:50:05;;;;;;;;;;;3.30;62.00;;;;;;2295084;58;20080;-75
2022/03/09 04:52:31;;;;;;;;;;;3.30;62.10;;;;;;2295669;58;20340;-74
2022/03/09 04:54:58;;;;;;;;;;;3.30;62.10;;;;;;2295525;58;20117;-74
2022/03/09 04:57:24;;;;;;;;;;;3.30;62.10;;;;;;2295679;58;20109;-74
2022/03/09 04:59:51;;;;;;;;;;;3.20;62.10;;;;;;2294928;58;20128;-74
2022/03/09 05:02:17;;;;;;;;;;;3.20;62.10;;;;;;2294761;58;20322;-74
2022/03/09 05:04:44;;;;;;;;;;;3.20;62.10;;;;;;2294993;58;20299;-74
2022/03/09 05:07:10;;;;;;;;;;;3.30;62.10;;;;;;2294782;58;20132;-74
2022/03/09 05:09:37;;;;;;;;;;;3.20;61.90;;;;;;2295117;58;20370;-74
2022/03/09 05:12:05;;;;;;;;;;;3.20;61.80;;;;;;2295004;58;20148;-73
2022/03/09 05:14:32;;;;;;;;;;;3.10;61.90;;;;;;2294602;58;20080;-73
2022/03/09 05:16:58;;;;;;;;;;;3.10;62.20;;;;;;2294475;58;20171;-73
2022/03/09 05:19:25;;;;;;;;;;;3.10;62.30;;;;;;2294112;58;20327;-74
2022/03/09 05:21:51;;;;;;;;;;;3.10;62.30;;;;;;2294519;58;20304;-74
2022/03/09 05:24:18;;;;;;;;;;;3.10;62.40;;;;;;2295100;58;20084;-74
2022/03/09 05:26:46;;;;;;;;;;;3.10;62.50;;;;;;2294030;58;20067;-74
2022/03/09 05:29:13;;;;;;;;;;;3.10;62.50;;;;;;2294605;58;20377;-74
2022/03/09 05:31:39;;;;;;;;;;;3.00;62.80;;;;;;2294698;58;20101;-74
2022/03/09 05:34:06;;;;;;;;;;;3.10;63.00;;;;;;2444463;55;20342;-72
2022/03/09 05:36:32;;;;;;;;;;;3.10;63.30;;;;;;2295215;58;20083;-72
2022/03/09 05:38:59;;;;;;;;;;;3.10;63.30;;;;;;2294199;58;20147;-73
2022/03/09 05:41:25;;;;;;;;;;;3.10;63.20;;;;;;2294869;58;20140;-74
2022/03/09 05:43:52;;;;;;;;;;;3.10;63.00;;;;;;2295170;58;20129;-74
2022/03/09 05:46:18;;;;;;;;;;;3.10;62.90;;;;;;2294999;58;20168;-74
2022/03/09 05:48:45;;;;;;;;;;;3.10;62.90;;;;;;2294947;58;20371;-74
2022/03/09 05:51:11;;;;;;;;;;;3.00;62.90;;;;;;2294196;58;20096;-73
2022/03/09 05:53:39;;;;;;;;;;;3.00;63.60;;;;;;2294429;58;20117;-74
2022/03/09 05:56:05;;;;;;;;;;;3.00;63.70;;;;;;2294493;58;20076;-74
2022/03/09 05:58:32;;;;;;;;;;;3.00;63.70;;;;;;2294988;58;20069;-74
2022/03/09 06:00:58;;;;;;;;;;;3.00;63.70;;;;;;2294559;58;20916;-74
2022/03/09 06:03:25;;;;;;;;;;;3.00;63.60;;;;;;2295244;58;20155;-74
2022/03/09 06:05:52;;;;;;;;;;;3.10;63.70;;;;;;2295325;58;20177;-73
2022/03/09 06:08:18;;;;;;;;;;;3.00;63.70;;;;;;2302684;55;20113;-74
2022/03/09 06:10:45;;;;;;;;;;;3.00;63.70;;;;;;2301387;55;20072;-74
2022/03/09 06:13:11;;;;;;;;;;;3.00;63.90;;;;;;2383526;55;20348;-74
2022/03/09 06:15:37;;;;;;;;;;;2.90;64.40;;;;;;2295174;58;20088;-74
2022/03/09 06:18:04;;;;;;;;;;;3.00;64.70;;;;;;2295516;58;20076;-74
2022/03/09 06:20:30;;;;;;;;;;;3.00;64.70;;;;;;2295136;58;20093;-74
2022/03/09 06:22:57;;;;;;;;;;;3.00;64.80;;;;;;2295581;58;20426;-74
2022/03/09 06:25:24;;;;;;;;;;;3.00;64.60;;;;;;2295481;58;20085;-74
2022/03/09 06:27:52;;;;;;;;;;;3.10;64.60;;;;;;2295453;58;20203;-74
2022/03/09 06:30:18;;;;;;;;;;;3.10;64.60;;;;;;2296976;55;20084;-74
2022/03/09 06:32:46;;;;;;;;;;;3.10;64.40;;;;;;2298592;55;20080;-74
2022/03/09 06:35:13;;;;;;;;;;;3.10;64.50;;;;;;2295512;58;20112;-74
2022/03/09 06:37:40;;;;;;;;;;;3.10;64.60;;;;;;2306001;55;20085;-74
2022/03/09 06:40:08;;;;;;;;;;;3.00;64.90;;;;;;2295190;58;20116;-74
2022/03/09 06:42:35;;;;;;;;;;;3.10;65.20;;;;;;2295522;58;20068;-74
2022/03/09 06:45:02;;;;;;;;;;;3.10;65.20;;;;;;2295895;58;20068;-74
2022/03/09 06:47:29;;;;;;;;;;;3.10;65.30;;;;;;2312146;55;20092;-74
2022/03/09 06:49:56;;;;;;;;;;;3.10;65.30;;;;;;2321146;55;20155;-74
2022/03/09 06:52:22;;;;;;;;;;;3.10;65.60;;;;;;2309247;55;20064;-74
2022/03/09 06:54:49;;;;;;;;;;;3.20;65.50;;;;;;2295660;58;20129;-74
2022/03/09 06:57:15;;;;;;;;;;;3.20;65.50;;;;;;2295491;58;20101;-74
2022/03/09 06:59:44;;;;;;;;;;;3.30;65.50;;;;;;2291501;57;20104;-73
2022/03/09 07:02:10;;;;;;;;;;;3.30;65.30;;;;;;2311847;58;20290;-75
2022/03/09 07:04:37;;;;;;;;;;;3.30;65.10;;;;;;2317900;58;20176;-75
2022/03/09 07:07:04;;;;;;;;;;;3.40;65.10;;;;;;2318204;58;20086;-75
2022/03/09 07:09:30;;;;;;;;;;;3.40;65.10;;;;;;2317832;58;20052;-75
2022/03/09 07:11:57;;;;;;;;;;;3.40;65.10;;;;;;2318151;58;20059;-75
2022/03/09 07:14:23;;;;;;;;;;;3.40;65.10;;;;;;2557668;54;20079;-75
2022/03/09 07:16:50;;;;;;;;;;;3.40;65.20;;;;;;2317647;58;20135;-75
2022/03/09 07:19:16;;;;;;;;;;;3.50;65.50;;;;;;2317645;58;20067;-75
2022/03/09 07:21:43;;;;;;;;;;;3.50;65.50;;;;;;2318019;58;20053;-75
2022/03/09 07:24:09;;;;;;;;;;;3.50;65.60;;;;;;2317996;58;20119;-75
2022/03/09 07:26:40;;;;;;;;;;;3.50;65.60;;;;;;2317040;58;20091;-75
2022/03/09 07:29:06;;;;;;;;;;;3.60;65.60;;;;;;2316495;58;20083;-75
2022/03/09 07:31:33;;;;;;;;;;;3.60;65.70;;;;;;2317685;58;20074;-75
2022/03/09 07:33:59;;;;;;;;;;;3.70;65.60;;;;;;2317855;58;20071;-75
2022/03/09 07:36:26;;;;;;;;;;;3.70;66.40;;;;;;2318068;58;20092;-75
2022/03/09 07:38:52;;;;;;;;;;;3.80;65.70;;;;;;2317920;58;20104;-75
2022/03/09 07:41:19;;;;;;;;;;;3.80;66.00;;;;;;2317568;58;20139;-75
2022/03/09 07:43:45;;;;;;;;;;;3.80;65.90;;;;;;2318151;58;20067;-75
2022/03/09 07:46:12;;;;;;;;;;;3.90;66.00;;;;;;2317032;58;20118;-75
2022/03/09 07:48:38;;;;;;;;;;;3.90;65.80;;;;;;2317018;58;20068;-75
2022/03/09 07:51:05;;;;;;;;;;;4.00;65.90;;;;;;2316691;58;20072;-75
2022/03/09 07:53:31;;;;;;;;;;;4.00;65.90;;;;;;2557042;54;20322;-75
2022/03/09 07:55:58;;;;;;;;;;;4.10;65.90;;;;;;2557706;54;20108;-76
2022/03/09 07:58:24;;;;;;;;;;;4.10;65.90;;;;;;2317149;58;20131;-75
2022/03/09 08:00:51;;;;;;;;;;;4.20;65.90;;;;;;2316687;58;20139;-75
2022/03/09 08:03:17;;;;;;;;;;;4.20;65.80;;;;;;2317330;58;20104;-75
2022/03/09 08:05:44;;;;;;;;;;;4.30;65.80;;;;;;2317134;58;20099;-75
2022/03/09 08:08:11;;;;;;;;;;;4.40;65.70;;;;;;2317336;58;20091;-75
2022/03/09 08:10:37;;;;;;;;;;;4.40;65.70;;;;;;2317106;58;20104;-74
2022/03/09 08:13:04;;;;;;;;;;;4.50;65.70;;;;;;2559137;54;20087;-74
2022/03/09 08:15:31;;;;;;;;;;;4.50;65.60;;;;;;2317266;58;20068;-74
2022/03/09 08:17:58;;;;;;;;;;;4.60;65.50;;;;;;2316542;58;20136;-74
2022/03/09 08:20:24;;;;;;;;;;;4.70;65.40;;;;;;2316265;58;20107;-75
2022/03/09 08:22:51;;;;;;;;;;;4.70;65.20;;;;;;2316874;58;20167;-75
2022/03/09 08:25:17;;;;;;;;;;;4.80;65.20;;;;;;2316805;58;20083;-75
2022/03/09 08:27:44;;;;;;;;;;;4.90;64.80;;;;;;2316798;58;20083;-75
2022/03/09 08:30:11;;;;;;;;;;;4.90;64.70;;;;;;2316264;58;20091;-75
2022/03/09 08:32:38;;;;;;;;;;;5.00;64.80;;;;;;2316300;58;20063;-75
2022/03/09 08:35:05;;;;;;;;;;;5.10;64.70;;;;;;2554565;54;20128;-76
2022/03/09 08:37:32;;;;;;;;;;;5.10;64.50;;;;;;2316083;58;20183;-75
2022/03/09 08:39:58;;;;;;;;;;;5.20;64.50;;;;;;2316230;58;20131;-75
2022/03/09 08:42:25;;;;;;;;;;;5.30;64.40;;;;;;2316196;58;20076;-75
2022/03/09 08:44:51;;;;;;;;;;;5.30;64.20;;;;;;2317024;58;20119;-75
2022/03/09 08:47:18;;;;;;;;;;;5.30;63.90;;;;;;2316810;58;20072;-76
2022/03/09 08:49:44;;;;;;;;;;;5.40;63.70;;;;;;2316987;58;20060;-76
2022/03/09 08:52:11;;;;;;;;;;;5.50;64.30;;;;;;2316894;58;20112;-77
2022/03/09 08:54:40;;;;;;;;;;;5.50;63.20;;;;;;2316748;58;20132;-76
2022/03/09 08:57:06;;;;;;;;;;;5.60;63.30;;;;;;2557363;54;20068;-77
2022/03/09 08:59:33;;;;;;;;;;;5.70;63.00;;;;;;2316040;58;20413;-77
2022/03/09 09:01:59;;;;;;;;;;;5.70;62.90;;;;;;2316805;58;20183;-77
2022/03/09 09:04:26;;;;;;;;;;;5.80;62.80;;;;;;2316947;58;20467;-77
2022/03/09 09:06:52;;;;;;;;;;;5.80;62.60;;;;;;2316791;58;20135;-77
2022/03/09 09:09:20;;;;;;;;;;;5.90;62.70;;;;;;2557241;54;20139;-77
2022/03/09 09:11:46;;;;;;;;;;;5.90;63.30;;;;;;2317045;58;20072;-77
2022/03/09 09:14:13;;;;;;;;;;;6.00;62.60;;;;;;2316766;58;20095;-77
2022/03/09 09:16:43;;;;;;;;;;;6.00;62.30;;;;;;2317425;58;20115;-76
2022/03/09 09:19:10;;;;;;;;;;;6.10;62.10;;;;;;2317584;58;20124;-76
2022/03/09 09:21:36;;;;;;;;;;;6.10;62.00;;;;;;2317558;58;20083;-76
2022/03/09 09:24:03;;;;;;;;;;;6.20;61.80;;;;;;2317637;58;20361;-75
2022/03/09 09:26:30;;;;;;;;;;;6.20;61.80;;;;;;2317016;58;20071;-76
2022/03/09 09:28:56;;;;;;;;;;;6.30;61.70;;;;;;2556961;54;20075;-75
2022/03/09 09:31:23;;;;;;;;;;;6.30;61.40;;;;;;2316299;58;20056;-76
2022/03/09 09:33:49;;;;;;;;;;;6.40;61.20;;;;;;2317364;58;20087;-77
2022/03/09 09:36:16;;;;;;;;;;;6.50;61.20;;;;;;2317385;58;20091;-76
2022/03/09 09:38:43;;;;;;;;;;;6.50;61.00;;;;;;2317419;58;20112;-76
2022/03/09 09:41:13;;;;;;;;;;;6.60;60.60;;;;;;2317648;58;20067;-76
2022/03/09 09:43:41;;;;;;;;;;;6.60;60.40;;;;;;2317694;58;20289;-76
2022/03/09 09:46:07;;;;;;;;;;;6.70;61.30;;;;;;2317628;58;20103;-76
2022/03/09 09:48:34;;;;;;;;;;;6.80;60.30;;;;;;2316401;58;20135;-76
2022/03/09 09:51:00;;;;;;;;;;;6.80;60.00;;;;;;2316921;58;20068;-76
2022/03/09 09:53:28;;;;;;;;;;;6.90;59.80;;;;;;2317805;58;20120;-76
2022/03/09 09:55:54;;;;;;;;;;;6.90;59.50;;;;;;2317801;58;20065;-76
2022/03/09 09:58:21;;;;;;;;;;;7.00;59.00;;;;;;2318001;58;20122;-76
2022/03/09 10:00:47;;;;;;;;;;;7.00;59.10;;;;;;2316680;58;20434;-76
2022/03/09 10:03:14;;;;;;;;;;;7.10;59.00;;;;;;2317877;58;20071;-76
2022/03/09 10:05:40;;;;;;;;;;;7.10;59.00;;;;;;2557116;54;20083;-75
2022/03/09 10:08:13;;;;;;;;;;;7.20;59.00;;;;;;2317542;58;20071;-76
2022/03/09 10:10:41;;;;;;;;;;;7.20;59.30;;;;;;2557671;54;20080;-76
2022/03/09 10:13:12;;;;;;;;;;;7.30;58.70;;;;;;2317877;58;20068;-75
2022/03/09 10:15:39;;;;;;;;;;;7.30;58.30;;;;;;2317693;58;20067;-76
2022/03/09 10:18:12;;;;;;;;;;;7.40;58.50;;;;;;2558065;54;20056;-76
2022/03/09 10:20:39;;;;;;;;;;;7.40;58.50;;;;;;2317347;58;20079;-76
2022/03/09 10:23:05;;;;;;;;;;;7.40;58.30;;;;;;2317018;58;20199;-76
2022/03/09 10:25:32;;;;;;;;;;;7.50;58.40;;;;;;2317387;58;20116;-75
2022/03/09 10:28:00;;;;;;;;;;;7.60;58.00;;;;;;2317862;58;20354;-76
2022/03/09 10:30:31;;;;;;;;;;;7.60;57.90;;;;;;2557663;54;20056;-76
2022/03/09 10:32:58;;;;;;;;;;;7.60;57.40;;;;;;2318020;58;20142;-76
2022/03/09 10:35:40;;;;;;;;;;;7.70;57.60;;;;;;2317732;58;20075;-76
2022/03/09 10:38:07;;;;;;;;;;;7.70;57.50;;;;;;2558197;54;20116;-77
2022/03/09 10:40:40;;;;;;;;;;;7.80;57.50;;;;;;2316806;58;20140;-77
2022/03/09 10:43:09;;;;;;;;;;;7.80;56.70;;;;;;2558016;54;20368;-75
2022/03/09 10:45:36;;;;;;;;;;;7.90;56.70;;;;;;2317753;58;20532;-77
2022/03/09 10:48:06;;;;;;;;;;;8.00;56.90;;;;;;2558391;54;20130;-76
2022/03/09 10:50:32;;;;;;;;;;;8.10;57.00;;;;;;2317207;58;20459;-77
2022/03/09 10:53:00;;;;;;;;;;;8.10;56.40;;;;;;2317763;58;20155;-75
2022/03/09 10:55:28;;;;;;;;;;;8.20;56.20;;;;;;2557778;54;20135;-73
2022/03/09 10:58:07;;;;;;;;;;;8.30;56.00;;;;;;2317040;58;20083;-75
2022/03/09 11:00:38;;;;;;;;;;;8.40;55.70;;;;;;2316978;58;20078;-74
2022/03/09 11:03:06;;;;;;;;;;;8.50;55.90;;;;;;2558475;54;20091;-76
2022/03/09 11:05:33;;;;;;;;;;;8.60;56.00;;;;;;2317082;58;20111;-76
2022/03/09 11:08:00;;;;;;;;;;;8.70;55.70;;;;;;2317222;58;20083;-76
2022/03/09 11:10:28;;;;;;;;;;;8.80;55.30;;;;;;2317364;58;20112;-76
2022/03/09 11:12:55;;;;;;;;;;;8.90;54.90;;;;;;2558288;54;20051;-74
2022/03/09 11:15:24;;;;;;;;;;;9.00;55.30;;;;;;2317544;58;20075;-74
2022/03/09 11:17:51;;;;;;;;;;;9.10;53.90;;;;;;2317895;58;20218;-73
2022/03/09 11:20:18;;;;;;;;;;;9.20;54.00;;;;;;2317140;58;20163;-74
2022/03/09 11:22:44;;;;;;;;;;;9.30;54.00;;;;;;2557996;54;20143;-74
2022/03/09 11:25:11;;;;;;;;;;;9.40;54.00;;;;;;2317894;58;20084;-74
2022/03/09 11:27:47;;;;;;;;;;;9.50;53.60;;;;;;2316979;58;20080;-75
2022/03/09 11:30:28;;;;;;;;;;;9.60;53.50;;;;;;2317085;58;20326;-74
2022/03/09 11:32:55;;;;;;;;;;;9.80;53.50;;;;;;2557676;54;20072;-77
2022/03/09 11:35:32;;;;;;;;;;;9.80;53.30;;;;;;2317471;58;20659;-77
2022/03/09 11:37:58;;;;;;;;;;;9.90;53.10;;;;;;2316805;58;20142;-77
2022/03/09 11:40:25;;;;;;;;;;;10.00;53.10;;;;;;2556351;54;20090;-76
2022/03/09 11:42:51;;;;;;;;;;;10.10;52.90;;;;;;2317257;58;20215;-74
2022/03/09 11:45:31;;;;;;;;;;;10.20;53.00;;;;;;2316689;58;20083;-75
2022/03/09 11:48:00;;;;;;;;;;;10.30;52.70;;;;;;2317531;58;20063;-75
2022/03/09 11:50:28;;;;;;;;;;;10.40;52.60;;;;;;2316408;58;20083;-75
2022/03/09 11:52:57;;;;;;;;;;;10.50;52.70;;;;;;2317397;58;20150;-75
2022/03/09 11:55:23;;;;;;;;;;;10.60;52.80;;;;;;2317015;58;20115;-75
2022/03/09 11:58:04;;;;;;;;;;;10.60;52.70;;;;;;2317362;58;20123;-75
2022/03/09 12:00:31;;;;;;;;;;;10.70;52.70;;;;;;2316107;58;20127;-75
2022/03/09 12:02:57;;;;;;;;;;;10.90;52.10;;;;;;2316758;58;20092;-74
2022/03/09 12:05:34;;;;;;;;;;;10.90;51.90;;;;;;2316556;58;20072;-75
2022/03/09 12:08:01;;;;;;;;;;;11.00;52.10;;;;;;2316727;58;20083;-75
2022/03/09 12:10:41;;;;;;;;;;;11.10;52.10;;;;;;2316903;58;20303;-74
2022/03/09 12:13:18;;;;;;;;;;;11.10;52.20;;;;;;2557621;54;20147;-75
2022/03/09 12:16:00;;;;;;;;;;;11.20;51.40;;;;;;2317267;58;20139;-75
2022/03/09 12:18:36;;;;;;;;;;;11.30;48.80;;;;;;2316857;58;20059;-75
2022/03/09 12:21:03;;;;;;;;;;;11.40;47.70;;;;;;2316062;58;20075;-74
2022/03/09 12:23:29;;;;;;;;;;;11.40;48.30;;;;;;2316759;58;20138;-75
2022/03/09 12:25:58;;;;;;;;;;;11.50;47.90;;;;;;2317009;58;20099;-75
2022/03/09 12:28:43;;;;;;;;;;;11.60;47.80;;;;;;2316938;58;20158;-75
2022/03/09 12:31:16;;;;;;;;;;;11.70;48.30;;;;;;2316952;58;20080;-75
2022/03/09 12:33:43;;;;;;;;;;;11.70;47.00;;;;;;2557173;54;20071;-75
2022/03/09 12:36:11;;;;;;;;;;;11.80;47.10;;;;;;2316914;58;20091;-74
2022/03/09 12:38:38;;;;;;;;;;;11.80;46.30;;;;;;2317343;58;20080;-75
2022/03/09 12:41:05;;;;;;;;;;;11.90;45.10;;;;;;2316885;58;20115;-75
2022/03/09 12:43:45;;;;;;;;;;;11.90;44.70;;;;;;2317227;58;20279;-75
2022/03/09 12:46:11;;;;;;;;;;;12.00;44.50;;;;;;2316591;58;20080;-75
2022/03/09 12:48:39;;;;;;;;;;;12.10;44.70;;;;;;2317441;58;20434;-74
2022/03/09 12:51:06;;;;;;;;;;;12.20;44.20;;;;;;2557018;54;20071;-74
2022/03/09 12:53:33;;;;;;;;;;;12.20;42.60;;;;;;2316910;58;20326;-74
2022/03/09 12:56:11;;;;;;;;;;;12.20;43.30;;;;;;2557674;54;20149;-74
2022/03/09 12:58:38;;;;;;;;;;;12.30;44.40;;;;;;2333602;53;20067;-75
2022/03/09 13:01:08;;;;;;;;;;;12.30;44.80;;;;;;2556665;53;20086;-75
2022/03/09 13:03:34;;;;;;;;;;;12.40;44.80;;;;;;2334341;57;20135;-75
2022/03/09 13:06:03;;;;;;;;;;;12.40;44.90;;;;;;2336006;57;20094;-75
2022/03/09 13:08:33;;;;;;;;;;;12.50;45.10;;;;;;2335885;57;20066;-75
2022/03/09 13:10:59;;;;;;;;;;;12.50;46.00;;;;;;2580857;53;20123;-75
2022/03/09 13:13:29;;;;;;;;;;;12.50;47.40;;;;;;2336115;57;20071;-75
2022/03/09 13:15:59;;;;;;;;;;;12.60;46.70;;;;;;2580390;53;20131;-75
2022/03/09 13:18:27;;;;;;;;;;;12.60;46.20;;;;;;2335877;57;20123;-75
2022/03/09 13:20:54;;;;;;;;;;;12.70;44.00;;;;;;2335900;57;20070;-75
2022/03/09 13:23:24;;;;;;;;;;;12.70;44.10;;;;;;2336031;57;20078;-75
2022/03/09 13:25:51;;;;;;;;;;;12.80;44.60;;;;;;2335667;57;20131;-75
2022/03/09 13:28:25;;;;;;;;;;;12.80;43.50;;;;;;2580491;53;20099;-75
2022/03/09 13:30:54;;;;;;;;;;;12.90;43.40;;;;;;2335787;57;20055;-75
2022/03/09 13:33:22;;;;;;;;;;;13.00;43.00;;;;;;2335505;57;20358;-75
2022/03/09 13:35:49;;;;;;;;;;;13.00;42.90;;;;;;2335419;57;20090;-75
2022/03/09 13:38:19;;;;;;;;;;;13.00;41.50;;;;;;2336180;57;20083;-74
2022/03/09 13:40:46;;;;;;;;;;;13.00;40.00;;;;;;2335496;57;20118;-75
2022/03/09 13:43:13;;;;;;;;;;;13.10;40.40;;;;;;2335279;57;20183;-75
2022/03/09 13:45:41;;;;;;;;;;;13.10;39.80;;;;;;2335520;57;20082;-75
2022/03/09 13:48:18;;;;;;;;;;;13.10;39.30;;;;;;2335565;57;20092;-75
2022/03/09 13:50:48;;;;;;;;;;;13.10;39.20;;;;;;2335921;57;20089;-75
2022/03/09 13:53:15;;;;;;;;;;;13.10;38.70;;;;;;2580829;53;20063;-75
2022/03/09 13:55:42;;;;;;;;;;;13.10;36.90;;;;;;2336703;57;20086;-75
2022/03/09 13:58:10;;;;;;;;;;;13.10;35.80;;;;;;2336334;57;20129;-75
2022/03/09 14:00:38;;;;;;;;;;;13.20;36.40;;;;;;2335833;57;20098;-75
2022/03/09 14:03:12;;;;;;;;;;;13.20;36.80;;;;;;2335584;57;20070;-75
2022/03/09 14:05:39;;;;;;;;;;;13.20;38.30;;;;;;2335810;57;20071;-75
2022/03/09 14:08:06;;;;;;;;;;;13.30;38.60;;;;;;2336766;57;20071;-75
2022/03/09 14:10:33;;;;;;;;;;;13.30;38.00;;;;;;2580796;53;20135;-75
2022/03/09 14:13:07;;;;;;;;;;;13.40;38.30;;;;;;2336336;57;20079;-75
2022/03/09 14:15:33;;;;;;;;;;;13.40;38.70;;;;;;2335901;57;20070;-75
2022/03/09 14:18:00;;;;;;;;;;;13.40;38.60;;;;;;2336667;57;20417;-75
2022/03/09 14:20:27;;;;;;;;;;;13.50;38.90;;;;;;2336248;57;20262;-75
2022/03/09 14:22:53;;;;;;;;;;;13.50;39.20;;;;;;2335790;57;20127;-75
2022/03/09 14:25:20;;;;;;;;;;;13.60;39.50;;;;;;2580969;53;20075;-75
2022/03/09 14:27:47;;;;;;;;;;;13.60;40.50;;;;;;2580953;53;20107;-75
2022/03/09 14:30:14;;;;;;;;;;;13.60;41.70;;;;;;2335766;57;20063;-75
2022/03/09 14:32:41;;;;;;;;;;;13.60;41.70;;;;;;2336134;57;20170;-75